Terminal Aerodrome Forecast
Issued by NWS

Home | Current Version | Previous Version | Text Only | Print | Product List | Glossary On
Versions: 1 2 3 4 5 6 7 8 9 10 11 12 13 14 15 16 17 18
000
FTUS46 KPDT 171122
TAFDLS
TAF
KDLS 171122Z 1712/1812 11003KT P6SM SCT015 BKN110
     FM171600 10002KT 6SM -FZRAPL SCT020 OVC080
     FM171900 VRB02KT 6SM HZ SCT023 BKN080
     FM180200 12002KT 5SM -FZRA BR BKN022 OVC050=

USA.gov is the U.S. government's official web portal to all federal, state and local government web resources and services.